createdAt,value
2022-12-15T00:02:03.834Z,18.98
2022-12-15T00:04:54.170Z,19.33
2022-12-15T00:07:44.501Z,18.75
2022-12-15T00:10:35.328Z,19.42
2022-12-15T00:13:32.286Z,19.05
2022-12-15T00:16:23.622Z,19.10
2022-12-15T00:19:13.851Z,18.98
2022-12-15T00:27:44.861Z,17.55
2022-12-15T00:30:35.683Z,19.52
2022-12-15T00:33:30.533Z,19.67
2022-12-15T00:36:21.737Z,19.83
2022-12-15T00:38:53.799Z,19.55
2022-12-15T00:41:25.839Z,19.88
2022-12-15T00:43:57.839Z,20.08
2022-12-15T00:47:02.450Z,18.77
2022-12-15T00:49:53.146Z,19.80
2022-12-15T00:52:43.717Z,18.77
2022-12-15T00:55:34.619Z,18.70
2022-12-15T00:58:24.998Z,18.23
2022-12-15T01:01:15.840Z,18.35
2022-12-15T01:04:06.050Z,19.40
2022-12-15T01:06:57.214Z,19.15
2022-12-15T01:09:47.798Z,20.95
2022-12-15T01:12:38.602Z,20.10
2022-12-15T01:15:28.808Z,18.38
2022-12-15T01:18:19.352Z,17.83
2022-12-15T01:21:04.993Z,19.20
2022-12-15T01:23:38.204Z,19.52
2022-12-15T01:26:10.246Z,20.42
2022-12-15T01:28:42.217Z,19.77
2022-12-15T01:31:14.702Z,19.35
2022-12-15T01:33:47.509Z,20.60
2022-12-15T01:36:19.506Z,19.38
2022-12-15T01:38:54.364Z,19.75
2022-12-15T01:41:26.937Z,20.38
2022-12-15T01:44:20.845Z,18.88
2022-12-15T01:46:56.269Z,19.95
2022-12-15T01:49:30.180Z,18.92
2022-12-15T01:52:04.436Z,20.92
2022-12-15T01:54:43.459Z,20.40
2022-12-15T01:57:22.926Z,19.75
2022-12-15T01:59:59.282Z,19.65
2022-12-15T02:02:38.287Z,21.10
2022-12-15T02:05:12.287Z,20.42
2022-12-15T02:07:44.229Z,20.92
2022-12-15T02:10:16.210Z,21.25
2022-12-15T02:13:11.928Z,21.05
2022-12-15T02:15:59.901Z,18.40
2022-12-15T02:18:45.839Z,18.33
2022-12-15T02:21:39.094Z,19.55
2022-12-15T02:24:26.091Z,19.35
2022-12-15T02:27:21.621Z,20.33
2022-12-15T02:31:13.073Z,19.65
2022-12-15T02:33:52.884Z,20.67
2022-12-15T02:36:33.732Z,18.13
2022-12-15T02:39:06.952Z,20.40
2022-12-15T02:41:47.484Z,20.23
2022-12-15T02:44:43.668Z,18.83
2022-12-15T02:47:54.216Z,18.77
2022-12-15T02:50:30.388Z,19.05
2022-12-15T02:53:42.572Z,19.25
2022-12-15T02:56:26.689Z,19.38
2022-12-15T02:59:11.527Z,20.15
2022-12-15T03:02:02.415Z,18.38
2022-12-15T03:04:34.747Z,19.35
2022-12-15T03:07:10.557Z,19.75
2022-12-15T03:09:42.491Z,19.75
2022-12-15T03:12:14.437Z,20.33
2022-12-15T03:14:46.344Z,18.33
2022-12-15T03:17:18.398Z,19.27
2022-12-15T03:19:50.616Z,19.33
2022-12-15T03:22:22.630Z,18.83
2022-12-15T03:24:54.624Z,19.05
2022-12-15T03:27:26.761Z,18.92
2022-12-15T03:29:58.755Z,19.95
2022-12-15T03:32:31.838Z,20.58
2022-12-15T03:35:04.197Z,18.42
2022-12-15T03:37:36.167Z,20.48
2022-12-15T03:40:09.477Z,18.05
2022-12-15T03:42:48.651Z,19.05
2022-12-15T03:45:24.278Z,16.27
2022-12-15T03:47:58.331Z,18.50
2022-12-15T03:50:30.445Z,18.58
2022-12-15T03:53:04.395Z,18.20
2022-12-15T03:55:36.413Z,19.95
2022-12-15T03:58:08.419Z,19.23
2022-12-15T04:00:40.423Z,19.23
2022-12-15T04:03:12.491Z,20.35
2022-12-15T04:05:44.574Z,19.27
2022-12-15T04:08:16.746Z,20.77
2022-12-15T04:10:48.749Z,19.00
2022-12-15T04:13:20.787Z,19.33
2022-12-15T04:15:52.776Z,19.35
2022-12-15T04:18:24.924Z,19.63
2022-12-15T04:20:56.996Z,20.02
2022-12-15T04:23:29.303Z,19.25
2022-12-15T04:26:20.035Z,19.30
2022-12-15T04:29:10.317Z,19.92
2022-12-15T04:32:01.455Z,18.65
2022-12-15T04:34:51.854Z,19.80
2022-12-15T04:37:42.199Z,18.30
2022-12-15T04:40:32.806Z,20.98
2022-12-15T04:43:23.427Z,17.73
2022-12-15T04:46:14.283Z,19.17
2022-12-15T04:49:04.598Z,18.83
2022-12-15T04:51:55.314Z,18.30
2022-12-15T04:54:45.755Z,19.25
2022-12-15T04:57:36.344Z,17.88
2022-12-15T05:00:27.715Z,19.15
2022-12-15T05:03:27.535Z,19.90
2022-12-15T05:06:17.888Z,17.70
2022-12-15T05:09:08.561Z,20.20
2022-12-15T05:11:58.841Z,17.98
2022-12-15T05:14:49.452Z,18.05
2022-12-15T05:17:41.852Z,19.67
2022-12-15T05:20:32.832Z,18.50
2022-12-15T05:23:23.620Z,19.02
2022-12-15T05:26:14.120Z,19.33
2022-12-15T05:29:04.296Z,20.40
2022-12-15T05:34:33.684Z,17.00
2022-12-15T05:37:08.013Z,18.88
2022-12-15T05:39:39.965Z,17.48
2022-12-15T05:42:11.989Z,18.42
2022-12-15T05:44:44.114Z,20.45
2022-12-15T05:47:16.092Z,18.85
2022-12-15T05:49:48.415Z,19.08
2022-12-15T05:52:20.394Z,20.42
2022-12-15T05:54:52.360Z,19.88
2022-12-15T05:57:24.458Z,19.75
2022-12-15T05:59:56.402Z,19.65
2022-12-15T06:02:31.931Z,20.00
2022-12-15T06:05:04.303Z,19.02
2022-12-15T06:07:37.593Z,20.67
2022-12-15T06:10:10.716Z,20.52
2022-12-15T06:12:42.657Z,20.75
2022-12-15T06:15:14.726Z,20.00
2022-12-15T06:17:49.513Z,20.23
2022-12-15T06:20:21.960Z,20.35
2022-12-15T06:22:53.891Z,18.45
2022-12-15T06:25:25.866Z,21.42
2022-12-15T06:28:01.744Z,19.73
2022-12-15T06:30:34.084Z,21.20
2022-12-15T06:33:06.051Z,19.70
2022-12-15T06:35:38.706Z,19.50
2022-12-15T06:38:10.707Z,19.38
2022-12-15T06:40:42.691Z,18.63
2022-12-15T06:43:14.661Z,20.42
2022-12-15T06:45:51.541Z,20.65
2022-12-15T06:48:25.356Z,20.33
2022-12-15T06:50:57.740Z,19.60
2022-12-15T06:53:30.156Z,20.48
2022-12-15T06:56:05.566Z,20.13
2022-12-15T06:58:37.595Z,20.58
2022-12-15T07:01:09.726Z,20.63
2022-12-15T07:03:42.711Z,20.42
2022-12-15T07:06:16.807Z,18.42
2022-12-15T07:08:56.724Z,19.77
2022-12-15T07:14:00.812Z,18.65
2022-12-15T07:16:33.338Z,17.90
2022-12-15T07:19:05.456Z,17.95
2022-12-15T07:21:37.386Z,18.65
2022-12-15T07:24:13.214Z,19.05
2022-12-15T07:26:46.228Z,19.13
2022-12-15T07:29:23.467Z,19.85
2022-12-15T07:31:56.081Z,18.48
2022-12-15T07:34:28.117Z,19.63
2022-12-15T07:37:00.055Z,18.77
2022-12-15T07:39:32.056Z,18.52
2022-12-15T07:42:04.139Z,19.63
2022-12-15T07:44:36.240Z,19.30
2022-12-15T07:47:08.295Z,20.75
2022-12-15T07:49:40.219Z,19.73
2022-12-15T07:52:14.217Z,19.13
2022-12-15T07:54:46.209Z,18.85
2022-12-15T07:57:18.749Z,17.65
2022-12-15T07:59:51.637Z,19.23
2022-12-15T08:02:23.708Z,18.13
2022-12-15T08:04:55.813Z,19.40
2022-12-15T08:07:27.792Z,17.85
2022-12-15T08:09:59.725Z,17.20
2022-12-15T08:12:31.756Z,18.52
2022-12-15T08:15:03.949Z,20.85
2022-12-15T08:17:35.876Z,20.60
2022-12-15T08:20:10.203Z,19.08
2022-12-15T08:22:42.341Z,18.83
2022-12-15T08:25:14.459Z,17.23
2022-12-15T08:27:46.429Z,17.65
2022-12-15T08:30:19.214Z,18.40
2022-12-15T08:32:52.240Z,17.30
2022-12-15T08:35:54.478Z,16.48
2022-12-15T08:38:16.470Z,17.83
2022-12-15T08:40:48.466Z,16.13
2022-12-15T08:43:20.662Z,16.50
2022-12-15T08:45:53.599Z,16.63
2022-12-15T08:48:25.620Z,16.45
2022-12-15T08:50:59.247Z,16.58
2022-12-15T08:53:32.184Z,16.13
2022-12-15T08:56:07.493Z,15.38
2022-12-15T08:58:40.229Z,14.52
2022-12-15T09:01:23.454Z,15.18
2022-12-15T09:03:57.006Z,14.98
2022-12-15T09:06:32.277Z,16.23
2022-12-15T09:09:08.579Z,15.98
2022-12-15T09:11:40.702Z,16.73
2022-12-15T09:14:12.761Z,15.00
2022-12-15T09:16:44.951Z,16.08
2022-12-15T09:19:16.976Z,15.57
2022-12-15T09:21:49.570Z,14.82
2022-12-15T09:24:32.205Z,14.77
2022-12-15T09:27:06.644Z,14.43
2022-12-15T09:29:38.690Z,15.52
2022-12-15T09:32:14.035Z,14.20
2022-12-15T09:34:46.450Z,15.20
2022-12-15T09:37:19.272Z,15.30
2022-12-15T09:39:51.209Z,14.30
2022-12-15T09:42:28.173Z,14.35
2022-12-15T09:45:14.399Z,15.13
2022-12-15T09:48:09.600Z,14.55
2022-12-15T09:50:44.925Z,14.52
2022-12-15T09:53:53.119Z,15.00
2022-12-15T09:56:28.563Z,14.43
2022-12-15T09:59:26.629Z,14.95
2022-12-15T10:02:25.820Z,14.07
2022-12-15T10:05:16.751Z,12.88
2022-12-15T10:07:50.734Z,14.70
2022-12-15T10:10:40.895Z,14.85
2022-12-15T10:13:23.976Z,14.32
2022-12-15T10:16:05.437Z,14.02
2022-12-15T10:19:14.579Z,16.33
2022-12-15T10:21:50.622Z,13.32
2022-12-15T10:24:59.832Z,13.75
2022-12-15T10:28:09.600Z,14.38
2022-12-15T10:31:02.462Z,14.63
2022-12-15T10:33:47.066Z,14.35
2022-12-15T10:36:22.197Z,14.48
2022-12-15T10:38:54.129Z,13.85
2022-12-15T10:41:26.483Z,14.35
2022-12-15T10:43:58.434Z,14.38
2022-12-15T10:46:32.348Z,13.35
2022-12-15T10:49:07.317Z,15.65
2022-12-15T10:51:47.667Z,14.85
2022-12-15T10:54:20.931Z,13.75
2022-12-15T10:56:59.749Z,14.15
2022-12-15T10:59:37.630Z,15.73
2022-12-15T11:02:24.513Z,14.98
2022-12-15T11:05:16.653Z,17.25
2022-12-15T11:07:52.469Z,17.63
2022-12-15T11:10:28.272Z,14.73
2022-12-15T11:13:13.731Z,14.15
2022-12-15T11:15:51.701Z,13.85
2022-12-15T11:18:55.759Z,13.85
2022-12-15T11:21:34.144Z,13.30
2022-12-15T11:24:18.627Z,13.70
2022-12-15T11:27:12.253Z,13.75
2022-12-15T11:30:05.314Z,14.35
2022-12-15T11:32:41.910Z,13.27
2022-12-15T11:35:25.780Z,12.40
2022-12-15T11:38:29.471Z,12.77
2022-12-15T11:41:17.056Z,13.63
2022-12-15T11:44:39.041Z,13.10
2022-12-15T11:47:26.413Z,13.15
2022-12-15T11:50:07.394Z,13.60
2022-12-15T11:52:54.777Z,13.52
2022-12-15T11:56:02.858Z,12.25
2022-12-15T11:59:26.369Z,12.68
2022-12-15T12:03:00.762Z,13.82
2022-12-15T12:05:32.700Z,12.88
2022-12-15T12:08:58.583Z,14.75
2022-12-15T12:11:43.689Z,13.13
2022-12-15T12:14:39.667Z,11.63
2022-12-15T12:17:31.817Z,13.40
2022-12-15T12:20:18.651Z,14.18
2022-12-15T12:23:06.102Z,12.98
2022-12-15T12:25:48.024Z,13.15
2022-12-15T12:28:42.180Z,11.23
2022-12-15T12:31:56.469Z,13.20
2022-12-15T12:35:32.248Z,13.75
2022-12-15T12:38:09.030Z,13.05
2022-12-15T12:40:40.916Z,12.70
2022-12-15T12:43:58.257Z,13.88
2022-12-15T12:46:37.474Z,14.35
2022-12-15T12:49:30.816Z,14.65
2022-12-15T12:52:06.131Z,13.35
2022-12-15T12:54:40.135Z,13.02
2022-12-15T12:57:11.982Z,13.90
2022-12-15T13:00:23.885Z,13.75
2022-12-15T13:03:30.561Z,12.70
2022-12-15T13:06:21.966Z,12.07
2022-12-15T13:08:55.894Z,12.73
2022-12-15T13:12:15.034Z,12.93
2022-12-15T13:14:55.519Z,12.65
2022-12-15T13:17:32.196Z,12.60
2022-12-15T13:20:22.445Z,14.10
2022-12-15T13:25:41.195Z,12.07
2022-12-15T13:28:28.629Z,14.57
2022-12-15T13:31:19.658Z,12.40
2022-12-15T13:33:57.360Z,12.85
2022-12-15T13:36:38.485Z,14.15
2022-12-15T13:39:19.293Z,12.95
2022-12-15T13:42:31.428Z,13.35
2022-12-15T13:44:51.990Z,11.35
2022-12-15T13:47:30.041Z,12.00
2022-12-15T13:50:33.668Z,12.52
2022-12-15T13:53:19.504Z,11.70
2022-12-15T13:56:25.828Z,13.75
2022-12-15T13:59:07.445Z,13.23
2022-12-15T14:01:51.340Z,13.57
2022-12-15T14:04:23.677Z,13.85
2022-12-15T14:07:00.477Z,13.75
2022-12-15T14:09:39.465Z,14.38
2022-12-15T14:12:14.642Z,14.05
2022-12-15T14:14:49.349Z,14.73
2022-12-15T14:17:21.441Z,13.52
2022-12-15T14:19:53.696Z,15.98
2022-12-15T14:22:30.075Z,14.95
2022-12-15T14:25:31.296Z,15.15
2022-12-15T14:28:05.510Z,14.77
2022-12-15T14:30:41.394Z,15.35
2022-12-15T14:33:16.456Z,15.43
2022-12-15T14:35:51.959Z,16.30
2022-12-15T14:38:46.133Z,15.70
2022-12-15T14:41:27.809Z,15.80
2022-12-15T14:44:37.153Z,16.35
2022-12-15T14:47:03.860Z,14.50
2022-12-15T14:49:43.526Z,15.38
2022-12-15T14:52:33.306Z,17.70
2022-12-15T14:55:37.717Z,15.82
2022-12-15T14:58:36.415Z,15.45
2022-12-15T15:01:36.370Z,16.10
2022-12-15T15:04:32.670Z,18.10
2022-12-15T15:07:18.610Z,17.42
2022-12-15T15:09:51.417Z,18.38
2022-12-15T15:12:29.225Z,17.45
2022-12-15T15:15:07.370Z,16.92
2022-12-15T15:17:55.853Z,17.63
2022-12-15T15:20:37.811Z,17.67
2022-12-15T15:23:22.093Z,16.38
2022-12-15T15:25:57.209Z,17.75
2022-12-15T15:28:38.634Z,18.23
2022-12-15T15:31:32.682Z,18.90
2022-12-15T15:34:09.122Z,18.40
2022-12-15T15:36:41.493Z,18.15
2022-12-15T15:39:16.053Z,17.42
2022-12-15T15:41:47.989Z,17.42
2022-12-15T15:44:22.323Z,17.50
2022-12-15T15:46:55.230Z,18.05
2022-12-15T15:49:27.506Z,17.98
2022-12-15T15:51:59.723Z,19.60
2022-12-15T15:54:38.081Z,19.38
2022-12-15T15:57:15.684Z,18.75
2022-12-15T15:59:47.915Z,20.83
2022-12-15T16:02:20.084Z,19.70
2022-12-15T16:04:52.273Z,20.27
2022-12-15T16:07:28.789Z,18.85
2022-12-15T16:10:00.928Z,18.23
2022-12-15T16:12:54.762Z,18.75
2022-12-15T16:15:31.710Z,18.83
2022-12-15T16:18:04.229Z,19.20
2022-12-15T16:20:38.439Z,19.77
2022-12-15T16:23:20.843Z,19.10
2022-12-15T16:25:56.864Z,20.80
2022-12-15T16:28:31.921Z,20.77
2022-12-15T16:31:04.246Z,21.98
2022-12-15T16:33:36.236Z,20.40
2022-12-15T16:36:14.242Z,21.38
2022-12-15T16:38:46.236Z,20.38
2022-12-15T16:41:18.980Z,20.42
2022-12-15T16:43:50.923Z,23.35
2022-12-15T16:46:22.944Z,25.77
2022-12-15T16:48:55.098Z,22.88
2022-12-15T16:51:39.238Z,23.85
2022-12-15T16:54:22.998Z,23.23
2022-12-15T16:56:57.775Z,25.85
2022-12-15T16:59:34.312Z,26.00
2022-12-15T17:02:27.791Z,24.02
2022-12-15T17:05:00.013Z,24.73
2022-12-15T17:07:32.273Z,23.40
2022-12-15T17:10:05.389Z,22.60
2022-12-15T17:12:37.746Z,23.50
2022-12-15T17:15:26.438Z,23.75
2022-12-15T17:17:58.996Z,23.60
2022-12-15T17:20:31.677Z,23.73
2022-12-15T17:23:08.990Z,23.95
2022-12-15T17:28:37.247Z,22.60
2022-12-15T17:31:21.960Z,23.55
2022-12-15T17:33:54.106Z,23.30
2022-12-15T17:36:28.524Z,23.52
2022-12-15T17:39:02.048Z,23.58
2022-12-15T17:41:58.878Z,24.17
2022-12-15T17:44:38.513Z,22.73
2022-12-15T17:47:10.832Z,25.00
2022-12-15T17:49:43.976Z,24.45
2022-12-15T17:52:23.361Z,24.17
2022-12-15T17:54:56.898Z,26.10
2022-12-15T17:57:31.843Z,23.42
2022-12-15T18:00:19.281Z,24.70
2022-12-15T18:02:52.868Z,25.40
2022-12-15T18:05:30.181Z,24.23
2022-12-15T18:08:10.732Z,26.08
2022-12-15T18:10:43.909Z,24.63
2022-12-15T18:13:20.736Z,25.88
2022-12-15T18:15:53.755Z,25.30
2022-12-15T18:18:26.093Z,28.85
2022-12-15T18:21:03.512Z,25.85
2022-12-15T18:23:35.875Z,28.15
2022-12-15T18:26:13.682Z,27.13
2022-12-15T18:28:45.730Z,29.35
2022-12-15T18:31:28.409Z,31.30
2022-12-15T18:34:04.711Z,31.13
2022-12-15T18:36:37.058Z,28.08
2022-12-15T18:39:23.623Z,27.05
2022-12-15T18:41:56.109Z,25.80
2022-12-15T18:44:31.531Z,26.60
2022-12-15T18:47:20.398Z,27.50
2022-12-15T18:49:52.721Z,27.33
2022-12-15T18:52:30.048Z,27.23
2022-12-15T18:55:16.468Z,29.45
2022-12-15T18:57:51.102Z,27.80
2022-12-15T19:00:28.496Z,27.60
2022-12-15T19:03:00.863Z,26.15
2022-12-15T19:05:32.981Z,29.05
2022-12-15T19:08:17.034Z,28.95
2022-12-15T19:10:56.538Z,27.85
2022-12-15T19:13:33.235Z,26.13
2022-12-15T19:16:12.994Z,27.13
2022-12-15T19:19:03.961Z,25.05
2022-12-15T19:21:57.011Z,25.30
2022-12-15T19:24:50.301Z,25.67
2022-12-15T19:27:26.416Z,26.00
2022-12-15T19:29:58.639Z,26.30
2022-12-15T19:32:30.704Z,26.27
2022-12-15T19:35:03.127Z,26.63
2022-12-15T19:37:36.454Z,25.65
2022-12-15T19:40:18.182Z,26.17
2022-12-15T19:42:50.878Z,24.95
2022-12-15T19:45:30.638Z,25.67
2022-12-15T19:48:02.828Z,25.95
2022-12-15T19:50:37.041Z,27.08
2022-12-15T19:53:24.349Z,26.50
2022-12-15T19:56:01.438Z,27.50
2022-12-15T19:58:35.924Z,26.40
2022-12-15T20:01:17.278Z,26.70
2022-12-15T20:03:52.245Z,26.67
2022-12-15T20:06:27.367Z,25.83
2022-12-15T20:09:00.013Z,25.80
2022-12-15T20:11:34.545Z,26.70
2022-12-15T20:14:13.140Z,27.33
2022-12-15T20:16:45.307Z,25.10
2022-12-15T20:19:17.455Z,25.25
2022-12-15T20:21:49.443Z,26.45
2022-12-15T20:24:21.847Z,26.88
2022-12-15T20:26:53.878Z,25.73
2022-12-15T20:29:32.169Z,25.73
2022-12-15T20:32:15.295Z,24.95
2022-12-15T20:34:48.367Z,25.02
2022-12-15T20:37:29.698Z,24.80
2022-12-15T20:40:01.963Z,24.30
2022-12-15T20:42:33.925Z,24.05
2022-12-15T20:45:06.913Z,25.73
2022-12-15T20:47:41.800Z,25.27
2022-12-15T20:50:41.027Z,23.50
2022-12-15T20:53:26.015Z,24.70
2022-12-15T20:55:58.079Z,22.95
2022-12-15T20:58:33.373Z,24.23
2022-12-15T21:01:24.614Z,25.67
2022-12-15T21:03:58.409Z,25.70
2022-12-15T21:06:30.782Z,24.98
2022-12-15T21:09:02.867Z,26.40
2022-12-15T21:11:40.818Z,26.02
2022-12-15T21:14:24.094Z,25.38
2022-12-15T21:16:56.709Z,24.15
2022-12-15T21:19:29.317Z,24.48
2022-12-15T21:22:01.563Z,26.50
2022-12-15T21:24:33.781Z,26.55
2022-12-15T21:27:09.332Z,26.30
2022-12-15T21:29:43.288Z,26.15
2022-12-15T21:32:17.255Z,25.33
2022-12-15T21:34:50.003Z,25.58
2022-12-15T21:37:27.330Z,24.83
2022-12-15T21:39:59.635Z,26.45
2022-12-15T21:42:36.406Z,23.17
2022-12-15T21:45:22.074Z,22.55
2022-12-15T21:48:12.351Z,23.00
2022-12-15T21:53:17.704Z,24.55
2022-12-15T21:55:49.710Z,23.58
2022-12-15T21:58:24.788Z,24.08
2022-12-15T22:00:56.971Z,22.77
2022-12-15T22:03:29.092Z,26.02
2022-12-15T22:06:01.090Z,25.02
2022-12-15T22:08:33.351Z,26.92
2022-12-15T22:11:23.662Z,25.90
2022-12-15T22:13:59.084Z,26.00
2022-12-15T22:16:31.076Z,23.98
2022-12-15T22:19:03.016Z,25.17
2022-12-15T22:21:34.985Z,25.40
2022-12-15T22:24:08.847Z,23.98
2022-12-15T22:26:41.766Z,24.13
2022-12-15T22:29:23.641Z,23.27
2022-12-15T22:31:55.886Z,24.63
2022-12-15T22:34:27.937Z,23.80
2022-12-15T22:37:00.119Z,23.50
2022-12-15T22:39:33.888Z,23.88
2022-12-15T22:42:06.262Z,24.38
2022-12-15T22:44:38.647Z,23.63
2022-12-15T22:47:11.295Z,23.83
2022-12-15T22:49:43.364Z,24.70
2022-12-15T22:52:20.935Z,24.58
2022-12-15T22:54:55.005Z,25.35
2022-12-15T22:57:28.672Z,24.23
2022-12-15T23:00:07.425Z,22.92
2022-12-15T23:02:43.696Z,22.77
2022-12-15T23:05:19.025Z,25.15
2022-12-15T23:07:51.122Z,24.15
2022-12-15T23:10:42.104Z,24.05
2022-12-15T23:16:05.109Z,22.70
2022-12-15T23:18:37.259Z,22.98
2022-12-15T23:21:09.584Z,23.17
2022-12-15T23:23:41.665Z,23.85
2022-12-15T23:26:16.376Z,20.98
2022-12-15T23:28:49.491Z,22.90
2022-12-15T23:31:21.912Z,23.48
2022-12-15T23:33:54.117Z,21.85
2022-12-15T23:36:26.178Z,21.73
2022-12-15T23:38:58.426Z,22.70
2022-12-15T23:41:30.449Z,22.50
2022-12-15T23:44:02.370Z,23.38
2022-12-15T23:46:34.413Z,22.77
2022-12-15T23:49:07.239Z,23.00
2022-12-15T23:51:39.273Z,22.92
2022-12-15T23:54:11.192Z,23.30
2022-12-15T23:56:43.235Z,23.02
2022-12-15T23:59:15.284Z,23.23
